Time;durP1;ratioP1;P1;durP2;ratioP2;P2;SDS_P1;SDS_P2;PMS_P1;PMS_P2;Temp;Humidity;BMP_temperature;BMP_pressure;BME280_temperature;BME280_humidity;BME280_pressure;Samples;Min_cycle;Max_cycle;Signal;HPM_P1;HPM_P2
2023/09/26 00:00:28;;;;;;;457.60;115.90;;;;;;;;;;5038524;28;20304;-58
2023/09/26 00:02:54;;;;;;;434.60;114.97;;;;;;;;;;5039145;28;20247;-57
2023/09/26 00:05:20;;;;;;;450.67;118.43;;;;;;;;;;5036321;28;20184;-56
2023/09/26 00:07:45;;;;;;;405.92;116.10;;;;;;;;;;5039426;28;20023;-57
2023/09/26 00:10:11;;;;;;;376.70;115.35;;;;;;;;;;5039445;28;20296;-57
2023/09/26 00:12:37;;;;;;;443.00;118.93;;;;;;;;;;5037838;28;20021;-57
2023/09/26 00:15:02;;;;;;;360.55;115.18;;;;;;;;;;5038210;28;20467;-57
2023/09/26 00:17:28;;;;;;;405.75;114.97;;;;;;;;;;5035255;28;20041;-57
2023/09/26 00:19:53;;;;;;;410.02;115.07;;;;;;;;;;5038739;28;20296;-58
2023/09/26 00:22:18;;;;;;;392.47;114.70;;;;;;;;;;5037273;28;20057;-57
2023/09/26 00:24:43;;;;;;;389.75;115.75;;;;;;;;;;5038718;28;20258;-58
2023/09/26 00:27:09;;;;;;;400.98;114.72;;;;;;;;;;5038149;28;20064;-58
2023/09/26 00:29:34;;;;;;;405.77;115.50;;;;;;;;;;5038245;28;20048;-58
2023/09/26 00:31:59;;;;;;;368.35;114.53;;;;;;;;;;5038642;28;20311;-55
2023/09/26 00:34:28;;;;;;;491.97;118.80;;;;;;;;;;5037943;28;20097;-58
2023/09/26 00:36:53;;;;;;;395.08;117.05;;;;;;;;;;5041851;28;20381;-58
2023/09/26 00:39:18;;;;;;;435.05;118.75;;;;;;;;;;5042627;28;20017;-56
2023/09/26 00:41:44;;;;;;;421.00;119.50;;;;;;;;;;5042301;28;20082;-55
2023/09/26 00:44:11;;;;;;;369.47;121.20;;;;;;;;;;5041577;28;21110;-56
2023/09/26 00:46:36;;;;;;;467.48;122.20;;;;;;;;;;5039798;28;20357;-55
2023/09/26 00:49:01;;;;;;;434.42;121.32;;;;;;;;;;5041301;28;20441;-56
2023/09/26 00:51:27;;;;;;;412.65;121.97;;;;;;;;;;5041172;28;20037;-57
2023/09/26 00:53:53;;;;;;;422.77;120.88;;;;;;;;;;5041685;28;20013;-55
2023/09/26 00:56:18;;;;;;;468.10;125.35;;;;;;;;;;5041214;28;20033;-56
2023/09/26 00:58:44;;;;;;;398.33;113.65;;;;;;;;;;5041579;28;20445;-56
2023/09/26 01:01:09;;;;;;;398.15;116.38;;;;;;;;;;5040875;28;20040;-55
2023/09/26 01:03:34;;;;;;;419.00;115.65;;;;;;;;;;5040334;28;20027;-56
2023/09/26 01:06:01;;;;;;;381.48;115.15;;;;;;;;;;5041224;28;20542;-57
2023/09/26 01:08:27;;;;;;;464.40;119.00;;;;;;;;;;5040933;28;20615;-57
2023/09/26 01:10:52;;;;;;;410.88;119.63;;;;;;;;;;5042153;28;20032;-57
2023/09/26 01:13:17;;;;;;;363.55;103.15;;;;;;;;;;5041573;28;20027;-56
2023/09/26 01:15:43;;;;;;;382.35;102.60;;;;;;;;;;5039358;28;20037;-56
2023/09/26 01:18:13;;;;;;;355.15;104.68;;;;;;;;;;5040826;28;20032;-56
2023/09/26 01:20:45;;;;;;;408.73;98.63;;;;;;;;;;5040266;28;20032;-56
2023/09/26 01:23:11;;;;;;;379.50;99.53;;;;;;;;;;5041546;28;20027;-58
2023/09/26 01:25:37;;;;;;;382.08;103.57;;;;;;;;;;5040210;28;20033;-57
2023/09/26 01:28:07;;;;;;;361.40;103.97;;;;;;;;;;5042240;28;20023;-56
2023/09/26 01:30:37;;;;;;;489.67;111.28;;;;;;;;;;5040625;28;20044;-56
2023/09/26 01:33:03;;;;;;;371.48;106.15;;;;;;;;;;5041774;28;20116;-57
2023/09/26 01:35:28;;;;;;;493.33;112.85;;;;;;;;;;5040007;28;20175;-57
2023/09/26 01:37:54;;;;;;;414.25;108.38;;;;;;;;;;5041743;28;20047;-57
2023/09/26 01:40:19;;;;;;;328.80;105.78;;;;;;;;;;5041731;28;20138;-55
2023/09/26 01:42:44;;;;;;;421.17;110.83;;;;;;;;;;5040548;28;20382;-56
2023/09/26 01:45:10;;;;;;;425.55;111.97;;;;;;;;;;5038545;28;20825;-57
2023/09/26 01:47:48;;;;;;;427.42;114.43;;;;;;;;;;5039748;28;20028;-57
2023/09/26 01:50:15;;;;;;;408.50;113.88;;;;;;;;;;5040135;28;20581;-57
2023/09/26 01:52:40;;;;;;;442.15;116.75;;;;;;;;;;5022813;28;20032;-56
2023/09/26 01:55:06;;;;;;;363.75;109.22;;;;;;;;;;5022993;28;20031;-58
2023/09/26 01:57:32;;;;;;;453.33;116.10;;;;;;;;;;5038925;28;20127;-56
2023/09/26 02:00:05;;;;;;;354.65;111.45;;;;;;;;;;5041629;28;20017;-57
2023/09/26 02:02:30;;;;;;;438.02;115.70;;;;;;;;;;5040014;28;20300;-57
2023/09/26 02:04:55;;;;;;;394.37;113.33;;;;;;;;;;5040410;28;20017;-57
2023/09/26 02:07:21;;;;;;;378.33;113.93;;;;;;;;;;5040837;28;20264;-56
2023/09/26 02:09:46;;;;;;;420.43;116.43;;;;;;;;;;5040812;28;20314;-56
2023/09/26 02:12:11;;;;;;;343.87;112.73;;;;;;;;;;5041203;28;20260;-56
2023/09/26 02:14:36;;;;;;;420.42;117.15;;;;;;;;;;5039655;28;20270;-56
2023/09/26 02:17:02;;;;;;;398.55;115.45;;;;;;;;;;5039969;28;20033;-57
2023/09/26 02:19:27;;;;;;;499.52;121.35;;;;;;;;;;5039432;28;20502;-57
2023/09/26 02:21:52;;;;;;;404.27;117.23;;;;;;;;;;5040309;28;20022;-57
2023/09/26 02:24:17;;;;;;;329.13;116.77;;;;;;;;;;5040018;28;20262;-56
2023/09/26 02:26:43;;;;;;;422.63;119.93;;;;;;;;;;5038451;28;20264;-57
2023/09/26 02:29:08;;;;;;;397.83;118.63;;;;;;;;;;5040917;28;20031;-58
2023/09/26 02:31:33;;;;;;;479.10;123.63;;;;;;;;;;5038360;28;20642;-58
2023/09/26 02:33:58;;;;;;;402.98;119.07;;;;;;;;;;5040505;28;20750;-57
2023/09/26 02:36:23;;;;;;;397.53;120.23;;;;;;;;;;5038428;28;20105;-58
2023/09/26 02:38:49;;;;;;;390.33;119.80;;;;;;;;;;5040609;28;20376;-58
2023/09/26 02:41:14;;;;;;;445.90;122.50;;;;;;;;;;5039694;28;20299;-56
2023/09/26 02:43:39;;;;;;;429.63;122.28;;;;;;;;;;5037979;28;20340;-56
2023/09/26 02:46:04;;;;;;;406.73;121.23;;;;;;;;;;5038436;28;20033;-56
2023/09/26 02:48:30;;;;;;;442.58;122.43;;;;;;;;;;5038595;28;20629;-58
2023/09/26 02:51:04;;;;;;;381.95;120.40;;;;;;;;;;5039724;28;20028;-57
2023/09/26 02:53:29;;;;;;;470.25;124.85;;;;;;;;;;5039336;28;20193;-56
2023/09/26 02:55:55;;;;;;;383.00;121.50;;;;;;;;;;5039795;28;20163;-55
2023/09/26 02:58:20;;;;;;;426.13;122.45;;;;;;;;;;5038056;28;20017;-56
2023/09/26 03:00:48;;;;;;;401.27;122.63;;;;;;;;;;5038794;28;20025;-56
2023/09/26 03:03:13;;;;;;;406.73;123.53;;;;;;;;;;5040090;28;20052;-57
2023/09/26 03:05:38;;;;;;;468.33;124.67;;;;;;;;;;5038227;28;20056;-56
2023/09/26 03:08:04;;;;;;;369.70;120.47;;;;;;;;;;5039948;28;20460;-57
2023/09/26 03:10:29;;;;;;;492.50;125.03;;;;;;;;;;5037399;28;20271;-57
2023/09/26 03:12:54;;;;;;;415.70;118.27;;;;;;;;;;5039706;28;20013;-56
2023/09/26 03:15:19;;;;;;;420.90;120.07;;;;;;;;;;5038910;28;20783;-56
2023/09/26 03:17:45;;;;;;;399.13;116.73;;;;;;;;;;5039130;28;20025;-56
2023/09/26 03:20:14;;;;;;;305.55;101.55;;;;;;;;;;5039050;28;20268;-56
2023/09/26 03:22:40;;;;;;;446.70;110.72;;;;;;;;;;5038366;28;20573;-57
2023/09/26 03:25:05;;;;;;;368.95;111.47;;;;;;;;;;5039349;28;20048;-57
2023/09/26 03:27:31;;;;;;;482.85;117.68;;;;;;;;;;5038494;28;20033;-57
2023/09/26 03:29:56;;;;;;;449.73;117.72;;;;;;;;;;5039671;28;20063;-58
2023/09/26 03:32:21;;;;;;;377.20;112.35;;;;;;;;;;5020697;28;20110;-56
2023/09/26 03:34:46;;;;;;;397.48;115.43;;;;;;;;;;5037355;28;20021;-56
2023/09/26 03:37:12;;;;;;;385.95;118.05;;;;;;;;;;5020471;28;20037;-57
2023/09/26 03:39:37;;;;;;;474.10;123.32;;;;;;;;;;5037339;28;20017;-57
2023/09/26 03:42:02;;;;;;;412.03;119.50;;;;;;;;;;5038628;28;20086;-56
2023/09/26 03:44:27;;;;;;;405.67;122.30;;;;;;;;;;5037211;28;20263;-56
2023/09/26 03:46:53;;;;;;;340.83;119.53;;;;;;;;;;5038554;28;20263;-57
2023/09/26 03:49:18;;;;;;;444.90;126.13;;;;;;;;;;5039443;28;20251;-57
2023/09/26 03:51:43;;;;;;;481.15;129.45;;;;;;;;;;5037447;28;20275;-56
2023/09/26 03:54:08;;;;;;;368.23;123.90;;;;;;;;;;5038923;28;20561;-57
2023/09/26 03:56:34;;;;;;;458.00;130.00;;;;;;;;;;5035762;28;20645;-57
2023/09/26 03:58:59;;;;;;;394.87;126.07;;;;;;;;;;5037760;28;20112;-57
2023/09/26 04:01:24;;;;;;;440.25;128.23;;;;;;;;;;5037507;28;20343;-58
2023/09/26 04:03:49;;;;;;;421.55;124.97;;;;;;;;;;5037571;28;20260;-59
2023/09/26 04:06:15;;;;;;;384.70;123.82;;;;;;;;;;5038083;28;20025;-56
2023/09/26 04:08:40;;;;;;;461.27;128.02;;;;;;;;;;5036754;28;20017;-59
2023/09/26 04:11:11;;;;;;;356.05;121.07;;;;;;;;;;5038512;28;20420;-57
2023/09/26 04:13:36;;;;;;;522.67;130.75;;;;;;;;;;5037008;28;20398;-56
2023/09/26 04:16:05;;;;;;;381.15;124.72;;;;;;;;;;5037557;28;20513;-57
2023/09/26 04:18:30;;;;;;;456.10;128.63;;;;;;;;;;5036656;28;20276;-57
2023/09/26 04:20:56;;;;;;;420.35;128.07;;;;;;;;;;5037738;28;20118;-56
2023/09/26 04:23:21;;;;;;;434.60;126.78;;;;;;;;;;5037779;28;20590;-56
2023/09/26 04:25:46;;;;;;;465.13;129.37;;;;;;;;;;5037356;28;20465;-57
2023/09/26 04:28:12;;;;;;;431.35;127.93;;;;;;;;;;5038578;28;20647;-57
2023/09/26 04:30:39;;;;;;;403.80;129.00;;;;;;;;;;5036673;28;20090;-57
2023/09/26 04:33:05;;;;;;;414.75;127.38;;;;;;;;;;5038562;28;20031;-58
2023/09/26 04:35:30;;;;;;;476.67;130.25;;;;;;;;;;5019222;28;20026;-57
2023/09/26 04:37:55;;;;;;;377.48;126.15;;;;;;;;;;5038990;28;20581;-58
2023/09/26 04:40:20;;;;;;;373.83;125.87;;;;;;;;;;5037446;28;20375;-59
2023/09/26 04:42:49;;;;;;;556.53;135.63;;;;;;;;;;5037489;28;20339;-58
2023/09/26 04:45:14;;;;;;;466.23;132.35;;;;;;;;;;5034990;28;20029;-59
2023/09/26 04:47:40;;;;;;;496.58;133.57;;;;;;;;;;5036994;28;20397;-58
2023/09/26 04:50:09;;;;;;;408.55;129.73;;;;;;;;;;5038413;28;20017;-58
2023/09/26 04:52:35;;;;;;;418.65;129.60;;;;;;;;;;5036835;28;20025;-57
2023/09/26 04:55:01;;;;;;;412.63;128.38;;;;;;;;;;5037437;28;20504;-57
2023/09/26 04:57:26;;;;;;;428.23;131.57;;;;;;;;;;5037555;28;20410;-57
2023/09/26 04:59:51;;;;;;;412.15;128.45;;;;;;;;;;5036807;28;20096;-59
2023/09/26 05:02:17;;;;;;;392.38;128.45;;;;;;;;;;5037501;28;20386;-59
2023/09/26 05:04:42;;;;;;;461.83;133.10;;;;;;;;;;5037448;28;20028;-59
2023/09/26 05:07:09;;;;;;;398.77;130.43;;;;;;;;;;5038122;28;20029;-58
2023/09/26 05:09:34;;;;;;;478.92;133.90;;;;;;;;;;5037579;28;20744;-59
2023/09/26 05:12:00;;;;;;;401.42;130.00;;;;;;;;;;5038195;28;20025;-59
2023/09/26 05:14:25;;;;;;;418.25;133.05;;;;;;;;;;5037381;28;20445;-61
2023/09/26 05:16:50;;;;;;;451.00;132.90;;;;;;;;;;5036391;28;20068;-59
2023/09/26 05:19:15;;;;;;;390.13;130.43;;;;;;;;;;5038193;28;20033;-58
2023/09/26 05:21:41;;;;;;;407.07;131.30;;;;;;;;;;5039088;28;20269;-57
2023/09/26 05:24:07;;;;;;;431.17;132.70;;;;;;;;;;5040998;28;20305;-56
2023/09/26 05:26:33;;;;;;;400.48;131.52;;;;;;;;;;5039947;28;20259;-57
2023/09/26 05:28:58;;;;;;;418.38;131.18;;;;;;;;;;5041388;28;20024;-56
2023/09/26 05:31:23;;;;;;;468.17;133.40;;;;;;;;;;5041056;28;20044;-56
2023/09/26 05:33:52;;;;;;;487.75;134.82;;;;;;;;;;5040658;28;20032;-57
2023/09/26 05:36:17;;;;;;;408.30;130.20;;;;;;;;;;5040180;28;20369;-57
2023/09/26 05:38:42;;;;;;;549.43;137.20;;;;;;;;;;5039839;28;20494;-58
2023/09/26 05:41:07;;;;;;;387.90;130.47;;;;;;;;;;5040097;28;20260;-57
2023/09/26 05:43:33;;;;;;;413.77;131.27;;;;;;;;;;5039102;28;20552;-57
2023/09/26 05:45:59;;;;;;;433.90;132.90;;;;;;;;;;5039946;28;20345;-56
2023/09/26 05:48:25;;;;;;;403.00;130.70;;;;;;;;;;5040696;28;20251;-56
2023/09/26 05:50:57;;;;;;;492.20;134.02;;;;;;;;;;5040476;28;20051;-57
2023/09/26 05:53:22;;;;;;;392.80;129.38;;;;;;;;;;5040418;28;20013;-58
2023/09/26 05:55:50;;;;;;;524.67;137.23;;;;;;;;;;5037709;28;20083;-57
2023/09/26 05:58:15;;;;;;;379.27;128.18;;;;;;;;;;5040361;28;20056;-59
2023/09/26 06:00:42;;;;;;;462.27;133.40;;;;;;;;;;5040118;28;20025;-58
2023/09/26 06:03:07;;;;;;;434.70;130.85;;;;;;;;;;5041260;28;20294;-58
2023/09/26 06:05:36;;;;;;;393.63;128.23;;;;;;;;;;5040001;28;20056;-56
2023/09/26 06:08:01;;;;;;;400.67;129.00;;;;;;;;;;5041593;28;20064;-58
2023/09/26 06:10:26;;;;;;;493.53;133.37;;;;;;;;;;5039084;28;20057;-59
2023/09/26 06:12:52;;;;;;;520.50;131.97;;;;;;;;;;5040340;28;20260;-58
2023/09/26 06:15:18;;;;;;;462.45;130.23;;;;;;;;;;5039330;28;20266;-58
2023/09/26 06:17:43;;;;;;;553.78;131.43;;;;;;;;;;5039031;28;20013;-58
2023/09/26 06:20:09;;;;;;;473.83;127.43;;;;;;;;;;5038557;28;20581;-58
2023/09/26 06:22:34;;;;;;;425.02;123.15;;;;;;;;;;5036903;28;20770;-57
2023/09/26 06:25:02;;;;;;;424.17;121.13;;;;;;;;;;5039782;28;20017;-58
2023/09/26 06:27:27;;;;;;;442.63;121.97;;;;;;;;;;5038015;28;20321;-58
2023/09/26 06:29:52;;;;;;;569.73;125.30;;;;;;;;;;5038754;28;20021;-59
2023/09/26 06:32:17;;;;;;;422.77;116.35;;;;;;;;;;5039211;28;20637;-57
2023/09/26 06:34:44;;;;;;;574.90;124.00;;;;;;;;;;5038393;28;20021;-58
2023/09/26 06:37:09;;;;;;;417.13;115.53;;;;;;;;;;5037943;28;20025;-56
2023/09/26 06:39:36;;;;;;;420.10;116.73;;;;;;;;;;5037690;28;20036;-57
2023/09/26 06:42:02;;;;;;;404.67;114.85;;;;;;;;;;5037934;28;20772;-58
2023/09/26 06:44:28;;;;;;;466.55;116.30;;;;;;;;;;5038563;28;20077;-58
2023/09/26 06:46:54;;;;;;;469.10;112.95;;;;;;;;;;5037918;28;20095;-57
2023/09/26 06:49:19;;;;;;;417.33;110.80;;;;;;;;;;5039078;28;20037;-59
2023/09/26 06:51:45;;;;;;;472.17;112.25;;;;;;;;;;5040000;28;20680;-58
2023/09/26 06:54:10;;;;;;;359.50;106.05;;;;;;;;;;5041323;28;20025;-58
2023/09/26 06:56:35;;;;;;;404.97;105.83;;;;;;;;;;5038657;28;20095;-57
2023/09/26 06:59:01;;;;;;;396.17;104.43;;;;;;;;;;5041228;28;20798;-58
2023/09/26 07:01:26;;;;;;;381.87;102.10;;;;;;;;;;5040114;28;20380;-59
2023/09/26 07:03:51;;;;;;;492.13;107.37;;;;;;;;;;5039069;28;20306;-58
2023/09/26 07:06:16;;;;;;;366.17;98.60;;;;;;;;;;5040067;28;20130;-59
2023/09/26 07:08:43;;;;;;;404.73;100.25;;;;;;;;;;5041454;28;20644;-60
2023/09/26 07:11:09;;;;;;;373.77;98.70;;;;;;;;;;5041226;28;20029;-57
2023/09/26 07:13:34;;;;;;;406.75;99.28;;;;;;;;;;5039977;28;20033;-57
2023/09/26 07:16:00;;;;;;;344.27;97.10;;;;;;;;;;5039254;28;20119;-57
2023/09/26 07:18:26;;;;;;;365.08;98.57;;;;;;;;;;5040991;28;20013;-58
2023/09/26 07:20:51;;;;;;;493.17;105.75;;;;;;;;;;5038532;28;20032;-59
2023/09/26 07:23:16;;;;;;;345.67;98.30;;;;;;;;;;5040214;28;20513;-57
2023/09/26 07:25:42;;;;;;;454.92;104.80;;;;;;;;;;5037914;28;20502;-58
2023/09/26 07:28:07;;;;;;;386.05;102.18;;;;;;;;;;5040865;28;20513;-58
2023/09/26 07:30:32;;;;;;;384.38;103.72;;;;;;;;;;5040086;28;20029;-58
2023/09/26 07:32:58;;;;;;;439.40;105.40;;;;;;;;;;5039749;28;20021;-58
2023/09/26 07:35:25;;;;;;;458.55;106.80;;;;;;;;;;5039356;28;20020;-58
2023/09/26 07:37:51;;;;;;;496.48;109.00;;;;;;;;;;5038678;28;20040;-57
2023/09/26 07:40:16;;;;;;;427.13;104.23;;;;;;;;;;5039257;28;20387;-57
2023/09/26 07:42:41;;;;;;;469.13;106.05;;;;;;;;;;5038751;28;20284;-57
2023/09/26 07:45:07;;;;;;;368.90;102.38;;;;;;;;;;5039703;28;20055;-58
2023/09/26 07:47:32;;;;;;;399.92;102.95;;;;;;;;;;5039447;28;20037;-57
2023/09/26 07:49:59;;;;;;;392.38;102.40;;;;;;;;;;5020922;28;20049;-57
2023/09/26 07:52:26;;;;;;;375.20;100.80;;;;;;;;;;5039376;28;20086;-58
2023/09/26 07:54:52;;;;;;;494.83;104.63;;;;;;;;;;5037604;28;20052;-58
2023/09/26 07:57:17;;;;;;;346.07;96.07;;;;;;;;;;5038800;28;20056;-58
2023/09/26 07:59:42;;;;;;;396.97;98.80;;;;;;;;;;5038514;28;20251;-57
2023/09/26 08:02:07;;;;;;;368.73;110.03;;;;;;;;;;5038583;28;20028;-57
2023/09/26 08:04:33;;;;;;;337.33;91.77;;;;;;;;;;5038883;28;20017;-58
2023/09/26 08:06:58;;;;;;;310.70;90.73;;;;;;;;;;5038281;28;20773;-57
2023/09/26 08:09:23;;;;;;;432.10;170.07;;;;;;;;;;5039135;28;20140;-57
2023/09/26 08:11:48;;;;;;;419.03;90.97;;;;;;;;;;5038279;28;20057;-60
2023/09/26 08:14:14;;;;;;;353.47;207.57;;;;;;;;;;5039880;28;20107;-59
2023/09/26 08:16:39;;;;;;;355.23;220.35;;;;;;;;;;5039047;28;20271;-58
2023/09/26 08:19:04;;;;;;;357.23;187.77;;;;;;;;;;5037520;28;20017;-59
2023/09/26 08:21:29;;;;;;;424.33;212.20;;;;;;;;;;5038383;28;20275;-59
2023/09/26 08:23:55;;;;;;;422.02;189.32;;;;;;;;;;5036769;28;20267;-58
2023/09/26 08:26:20;;;;;;;445.43;238.97;;;;;;;;;;5037972;28;20246;-58
2023/09/26 08:28:45;;;;;;;354.57;75.93;;;;;;;;;;5037851;28;20249;-59
2023/09/26 08:31:15;;;;;;;329.33;87.17;;;;;;;;;;5030951;28;20552;-58
2023/09/26 08:33:40;;;;;;;531.78;330.67;;;;;;;;;;5035194;28;20423;-57
2023/09/26 08:36:17;;;;;;;558.80;398.15;;;;;;;;;;5035927;28;20025;-57
2023/09/26 08:38:43;;;;;;;530.25;384.15;;;;;;;;;;5034807;28;20017;-56
2023/09/26 08:41:09;;;;;;;438.77;300.58;;;;;;;;;;5036009;28;20075;-58
2023/09/26 08:43:35;;;;;;;464.77;301.02;;;;;;;;;;5035622;28;20362;-56
2023/09/26 08:46:00;;;;;;;553.45;398.83;;;;;;;;;;5031203;28;20029;-61
2023/09/26 08:48:26;;;;;;;493.73;295.97;;;;;;;;;;5034089;28;20217;-60
2023/09/26 08:50:51;;;;;;;549.97;173.38;;;;;;;;;;5032907;28;20978;-58
2023/09/26 08:53:16;;;;;;;501.60;240.52;;;;;;;;;;5034002;28;20021;-59
2023/09/26 08:55:43;;;;;;;590.27;413.63;;;;;;;;;;5033035;28;20047;-58
2023/09/26 08:58:08;;;;;;;514.00;291.15;;;;;;;;;;5036498;28;20311;-59
2023/09/26 09:00:34;;;;;;;526.37;197.33;;;;;;;;;;5036313;28;20126;-60
2023/09/26 09:02:59;;;;;;;644.53;286.53;;;;;;;;;;5036952;28;20012;-61
2023/09/26 09:05:24;;;;;;;601.73;323.33;;;;;;;;;;5037677;28;20032;-62
2023/09/26 09:07:50;;;;;;;788.95;386.50;;;;;;;;;;5037030;28;20130;-58
2023/09/26 09:10:18;;;;;;;573.42;398.20;;;;;;;;;;5038639;28;20016;-61
2023/09/26 09:12:47;;;;;;;451.23;170.63;;;;;;;;;;5037561;28;20021;-57
2023/09/26 09:15:15;;;;;;;454.08;111.93;;;;;;;;;;5035578;28;20009;-59
2023/09/26 09:17:48;;;;;;;366.15;192.38;;;;;;;;;;5035897;28;20068;-58
2023/09/26 09:20:16;;;;;;;510.50;318.75;;;;;;;;;;5036808;28;20017;-56
2023/09/26 09:22:48;;;;;;;564.65;380.55;;;;;;;;;;5036895;28;20532;-59
2023/09/26 09:25:13;;;;;;;362.60;87.13;;;;;;;;;;5038448;28;20032;-57
2023/09/26 09:27:42;;;;;;;649.78;412.42;;;;;;;;;;5037587;28;20395;-58
2023/09/26 09:30:08;;;;;;;565.50;385.02;;;;;;;;;;5037249;28;20044;-60
2023/09/26 09:32:34;;;;;;;554.83;322.88;;;;;;;;;;5035765;28;20023;-58
2023/09/26 09:35:00;;;;;;;682.97;289.52;;;;;;;;;;5034962;28;20068;-58
2023/09/26 09:37:25;;;;;;;541.85;353.42;;;;;;;;;;5036266;28;20049;-58
2023/09/26 09:39:51;;;;;;;603.53;305.70;;;;;;;;;;5036159;28;20021;-57
2023/09/26 09:42:17;;;;;;;593.83;394.85;;;;;;;;;;5035746;28;20112;-58
2023/09/26 09:44:42;;;;;;;426.50;186.88;;;;;;;;;;5035332;28;20035;-57
2023/09/26 09:47:08;;;;;;;443.97;213.03;;;;;;;;;;5036070;28;20559;-56
2023/09/26 09:49:38;;;;;;;538.53;260.42;;;;;;;;;;5036102;28;20275;-58
2023/09/26 09:52:06;;;;;;;654.10;294.90;;;;;;;;;;5035494;28;20032;-57
2023/09/26 09:54:33;;;;;;;468.95;182.75;;;;;;;;;;5034614;28;20021;-59
2023/09/26 09:56:59;;;;;;;640.15;259.95;;;;;;;;;;5033250;28;20438;-57
2023/09/26 09:59:25;;;;;;;595.47;371.38;;;;;;;;;;5035397;28;20553;-58
2023/09/26 10:01:52;;;;;;;705.25;433.92;;;;;;;;;;5033708;28;20120;-57
2023/09/26 10:04:18;;;;;;;528.63;307.25;;;;;;;;;;5035984;28;20013;-57
2023/09/26 10:06:43;;;;;;;516.63;385.52;;;;;;;;;;5036372;28;20052;-56
2023/09/26 10:09:09;;;;;;;533.40;298.57;;;;;;;;;;5034844;28;20291;-58
2023/09/26 10:11:35;;;;;;;584.72;403.92;;;;;;;;;;5035839;28;20773;-56
2023/09/26 10:14:02;;;;;;;762.00;338.30;;;;;;;;;;5033666;28;20033;-57
2023/09/26 10:16:29;;;;;;;560.65;245.15;;;;;;;;;;5033960;28;20494;-58
2023/09/26 10:18:55;;;;;;;702.95;301.20;;;;;;;;;;5034938;28;20053;-57
2023/09/26 10:21:24;;;;;;;472.88;165.18;;;;;;;;;;5035329;28;20049;-58
2023/09/26 10:24:05;;;;;;;666.00;272.15;;;;;;;;;;5035063;28;20021;-57
2023/09/26 10:26:31;;;;;;;507.40;246.83;;;;;;;;;;5035149;28;20033;-58
2023/09/26 10:29:00;;;;;;;693.30;305.52;;;;;;;;;;5035576;28;20020;-57
2023/09/26 10:31:28;;;;;;;575.35;346.13;;;;;;;;;;5034893;28;20036;-57
2023/09/26 10:33:56;;;;;;;766.35;421.90;;;;;;;;;;5016208;28;20032;-57
2023/09/26 10:36:21;;;;;;;571.15;222.82;;;;;;;;;;5034749;28;20079;-58
2023/09/26 10:39:00;;;;;;;574.10;359.27;;;;;;;;;;5035624;28;20033;-58
2023/09/26 10:41:26;;;;;;;577.45;235.63;;;;;;;;;;5035300;28;20263;-58
2023/09/26 10:43:51;;;;;;;589.95;292.63;;;;;;;;;;5034100;28;20940;-57
2023/09/26 10:46:17;;;;;;;554.53;309.47;;;;;;;;;;5036346;28;20202;-57
2023/09/26 10:48:43;;;;;;;514.05;146.35;;;;;;;;;;5035750;28;20593;-56
2023/09/26 10:51:08;;;;;;;575.10;271.60;;;;;;;;;;5034522;28;20218;-56
2023/09/26 10:53:34;;;;;;;552.63;302.10;;;;;;;;;;5035084;28;20593;-58
2023/09/26 10:56:00;;;;;;;790.35;364.50;;;;;;;;;;5033277;28;20186;-58
2023/09/26 10:58:25;;;;;;;631.53;362.00;;;;;;;;;;5035038;28;20035;-59
2023/09/26 11:00:51;;;;;;;642.42;335.40;;;;;;;;;;5033725;28;20037;-58
2023/09/26 11:03:16;;;;;;;558.65;262.65;;;;;;;;;;5035256;28;20005;-58
2023/09/26 11:05:42;;;;;;;457.77;192.97;;;;;;;;;;5018131;28;20048;-59
2023/09/26 11:08:07;;;;;;;581.65;103.82;;;;;;;;;;5033958;28;20017;-58
2023/09/26 11:10:33;;;;;;;685.70;395.92;;;;;;;;;;5034413;28;20037;-58
2023/09/26 11:12:58;;;;;;;787.05;406.13;;;;;;;;;;5034366;28;20094;-58
2023/09/26 11:15:25;;;;;;;509.97;195.63;;;;;;;;;;5034127;28;20528;-59
2023/09/26 11:17:50;;;;;;;558.90;388.13;;;;;;;;;;5033422;28;20283;-57
2023/09/26 11:20:15;;;;;;;595.67;404.57;;;;;;;;;;5035000;28;20402;-57
2023/09/26 11:22:48;;;;;;;571.67;389.97;;;;;;;;;;5035734;28;20250;-58
2023/09/26 11:25:14;;;;;;;550.22;282.13;;;;;;;;;;5033426;28;20014;-55
2023/09/26 11:27:43;;;;;;;595.00;413.80;;;;;;;;;;5034634;28;20317;-57
2023/09/26 11:30:12;;;;;;;666.75;215.70;;;;;;;;;;5033215;28;20029;-57
2023/09/26 11:32:38;;;;;;;600.67;349.70;;;;;;;;;;5034007;28;20397;-58
2023/09/26 11:35:03;;;;;;;744.65;368.08;;;;;;;;;;5031472;28;20025;-57
2023/09/26 11:37:32;;;;;;;655.70;410.83;;;;;;;;;;5033987;28;20069;-56
2023/09/26 11:39:57;;;;;;;626.47;298.67;;;;;;;;;;5033074;28;20059;-57
2023/09/26 11:42:23;;;;;;;514.42;286.75;;;;;;;;;;5035591;28;20104;-57
2023/09/26 11:44:55;;;;;;;631.60;418.23;;;;;;;;;;5035777;28;20049;-56
2023/09/26 11:47:21;;;;;;;425.30;171.45;;;;;;;;;;5034855;28;20495;-56
2023/09/26 11:49:46;;;;;;;495.05;281.42;;;;;;;;;;5033563;28;20031;-56
2023/09/26 11:52:12;;;;;;;684.58;529.42;;;;;;;;;;5033004;28;20025;-55
2023/09/26 11:54:38;;;;;;;665.72;502.25;;;;;;;;;;5034359;28;20502;-56
2023/09/26 11:57:03;;;;;;;618.75;142.70;;;;;;;;;;5032687;28;20084;-56
2023/09/26 11:59:29;;;;;;;548.13;104.77;;;;;;;;;;5035024;28;20033;-57
2023/09/26 12:01:56;;;;;;;557.40;212.23;;;;;;;;;;5033316;28;20350;-56
2023/09/26 12:04:21;;;;;;;615.80;379.95;;;;;;;;;;5018708;28;20621;-56
2023/09/26 12:06:47;;;;;;;537.58;181.68;;;;;;;;;;5033685;28;20521;-58
2023/09/26 12:09:19;;;;;;;533.35;241.23;;;;;;;;;;5033301;28;20637;-57
2023/09/26 12:11:45;;;;;;;792.97;494.65;;;;;;;;;;5033909;28;20025;-56
2023/09/26 12:14:10;;;;;;;756.05;379.23;;;;;;;;;;5033453;28;20017;-56
2023/09/26 12:16:35;;;;;;;553.28;328.35;;;;;;;;;;5033516;28;21099;-56
2023/09/26 12:19:01;;;;;;;512.83;101.10;;;;;;;;;;5032721;28;20517;-57
2023/09/26 12:21:26;;;;;;;503.33;211.60;;;;;;;;;;5033584;28;20516;-58
2023/09/26 12:23:51;;;;;;;524.45;297.75;;;;;;;;;;5034616;28;20060;-57
2023/09/26 12:26:16;;;;;;;590.90;439.70;;;;;;;;;;5032194;28;20037;-57
2023/09/26 12:28:42;;;;;;;497.20;235.80;;;;;;;;;;5034120;28;20342;-58
2023/09/26 12:31:08;;;;;;;632.38;283.40;;;;;;;;;;5038912;28;20037;-58
2023/09/26 12:33:33;;;;;;;544.72;255.35;;;;;;;;;;5042559;28;20031;-57
2023/09/26 12:35:59;;;;;;;625.53;336.45;;;;;;;;;;5040305;28;20214;-57
2023/09/26 12:38:24;;;;;;;620.45;391.48;;;;;;;;;;5042558;28;20108;-57
2023/09/26 12:40:50;;;;;;;393.60;116.85;;;;;;;;;;5043093;28;20437;-57
2023/09/26 12:43:15;;;;;;;487.75;223.80;;;;;;;;;;5041233;28;20024;-57
2023/09/26 12:45:40;;;;;;;390.37;98.27;;;;;;;;;;5042014;28;20032;-57
2023/09/26 12:48:06;;;;;;;569.55;157.32;;;;;;;;;;5041705;28;20036;-56
2023/09/26 12:50:31;;;;;;;528.70;157.27;;;;;;;;;;5041642;28;20045;-57
2023/09/26 12:52:57;;;;;;;471.97;102.17;;;;;;;;;;5041013;28;20052;-58
2023/09/26 12:55:23;;;;;;;418.98;100.50;;;;;;;;;;5041526;28;20284;-56
2023/09/26 12:57:48;;;;;;;534.63;227.27;;;;;;;;;;5042463;28;20397;-57
2023/09/26 13:00:14;;;;;;;563.97;113.38;;;;;;;;;;5040924;28;20021;-57
2023/09/26 13:02:39;;;;;;;394.55;98.25;;;;;;;;;;5043678;28;20258;-55
2023/09/26 13:05:05;;;;;;;729.63;285.38;;;;;;;;;;5041100;28;20068;-56
2023/09/26 13:07:30;;;;;;;468.40;103.88;;;;;;;;;;5041468;28;20409;-57
2023/09/26 13:09:55;;;;;;;456.77;101.30;;;;;;;;;;5043254;28;20044;-58
2023/09/26 13:12:21;;;;;;;454.80;100.87;;;;;;;;;;5043464;28;20306;-57
2023/09/26 13:14:46;;;;;;;393.00;99.78;;;;;;;;;;5043244;28;20016;-57
2023/09/26 13:17:12;;;;;;;492.27;103.77;;;;;;;;;;5040522;28;20032;-56
2023/09/26 13:19:41;;;;;;;502.23;104.30;;;;;;;;;;5042297;28;20294;-59
2023/09/26 13:22:07;;;;;;;540.67;226.57;;;;;;;;;;5041205;28;20102;-57
2023/09/26 13:24:33;;;;;;;368.45;100.15;;;;;;;;;;5043040;28;20029;-58
2023/09/26 13:26:58;;;;;;;651.15;434.85;;;;;;;;;;5022465;28;20053;-56
2023/09/26 13:29:24;;;;;;;442.48;223.48;;;;;;;;;;5042737;28;20067;-56
2023/09/26 13:31:49;;;;;;;350.05;99.18;;;;;;;;;;5041775;28;20044;-58
2023/09/26 13:34:14;;;;;;;526.28;107.72;;;;;;;;;;5022638;28;20017;-55
2023/09/26 13:36:40;;;;;;;359.50;99.67;;;;;;;;;;5042328;28;20078;-56
2023/09/26 13:39:06;;;;;;;421.67;103.40;;;;;;;;;;5041169;28;20291;-57
2023/09/26 13:41:31;;;;;;;447.50;103.15;;;;;;;;;;5039548;28;20264;-56
2023/09/26 13:43:56;;;;;;;412.13;102.13;;;;;;;;;;5039135;28;20020;-56
2023/09/26 13:46:22;;;;;;;411.13;103.95;;;;;;;;;;5037276;28;20033;-57